createdAt,value
2023-02-08T00:00:05.914Z,9.747447
2023-02-08T00:01:05.936Z,9.747342
2023-02-08T00:02:05.901Z,9.747319
2023-02-08T00:03:05.888Z,9.747368
2023-02-08T00:04:05.916Z,9.747340
2023-02-08T00:05:05.894Z,9.747371
2023-02-08T00:06:05.920Z,9.747367
2023-02-08T00:07:05.863Z,9.747370
2023-02-08T00:08:05.873Z,9.747360
2023-02-08T00:09:05.854Z,9.747258
2023-02-08T00:10:05.865Z,9.747179
2023-02-08T00:11:05.883Z,9.747275
2023-02-08T00:12:05.825Z,9.747325
2023-02-08T00:13:05.823Z,9.747440
2023-02-08T00:14:05.817Z,9.747510
2023-02-08T00:15:05.805Z,9.747393
2023-02-08T00:16:05.866Z,9.747248
2023-02-08T00:17:05.785Z,9.747131
2023-02-08T00:18:05.780Z,9.747208
2023-02-08T00:19:05.776Z,9.747412
2023-02-08T00:20:05.769Z,9.747345
2023-02-08T00:21:05.793Z,9.747314
2023-02-08T00:22:05.751Z,9.747052
2023-02-08T00:23:05.749Z,9.746938
2023-02-08T00:24:05.748Z,9.747033
2023-02-08T00:25:05.732Z,9.747145
2023-02-08T00:26:05.780Z,9.747241
2023-02-08T00:27:05.722Z,9.747338
2023-02-08T00:28:08.382Z,9.747219
2023-02-08T00:29:05.703Z,9.747275
2023-02-08T00:30:05.716Z,9.747356
2023-02-08T00:31:05.804Z,9.747355
2023-02-08T00:32:05.714Z,9.747370
2023-02-08T00:33:05.676Z,9.747332
2023-02-08T00:34:05.662Z,9.747343
2023-02-08T00:35:05.656Z,9.747397
2023-02-08T00:36:05.673Z,9.747405
2023-02-08T00:37:05.683Z,9.747360
2023-02-08T00:38:05.633Z,9.747347
2023-02-08T00:39:05.637Z,9.747323
2023-02-08T00:40:05.630Z,9.747331
2023-02-08T00:41:05.643Z,9.747407
2023-02-08T00:42:05.602Z,9.747373
2023-02-08T00:43:05.612Z,9.747361
2023-02-08T00:44:05.596Z,9.747290
2023-02-08T00:45:05.588Z,9.747318
2023-02-08T00:46:05.629Z,9.747339
2023-02-08T00:47:05.571Z,9.747333
2023-02-08T00:48:05.584Z,9.747408
2023-02-08T00:49:05.575Z,9.747396
2023-02-08T00:50:05.564Z,9.747319
2023-02-08T00:51:05.582Z,9.747305
2023-02-08T00:52:05.549Z,9.747358
2023-02-08T00:53:05.536Z,9.747481
2023-02-08T00:54:05.529Z,9.747328
2023-02-08T00:55:05.525Z,9.747519
2023-02-08T00:56:05.574Z,9.747570
2023-02-08T00:57:05.502Z,9.747445
2023-02-08T00:58:05.496Z,9.747478
2023-02-08T00:59:05.638Z,9.747574
2023-02-08T01:00:05.511Z,9.747625
2023-02-08T01:01:05.530Z,9.747549
2023-02-08T01:02:05.494Z,9.747508
2023-02-08T01:03:05.463Z,9.747496
2023-02-08T01:04:05.455Z,9.747409
2023-02-08T01:05:05.463Z,9.747472
2023-02-08T01:06:05.468Z,9.747474
2023-02-08T01:07:05.432Z,9.747454
2023-02-08T01:08:05.526Z,9.747479
2023-02-08T01:09:05.451Z,9.747454
2023-02-08T01:10:05.412Z,9.747442
2023-02-08T01:11:05.436Z,9.747464
2023-02-08T01:12:05.401Z,9.747456
2023-02-08T01:13:06.418Z,9.747506
2023-02-08T01:14:05.443Z,9.747543
2023-02-08T01:15:05.372Z,9.747485
2023-02-08T01:16:05.368Z,9.747471
2023-02-08T01:17:05.392Z,9.747518
2023-02-08T01:18:05.537Z,9.747456
2023-02-08T01:19:05.353Z,9.747424
2023-02-08T01:20:05.339Z,9.747502
2023-02-08T01:21:05.332Z,9.747528
2023-02-08T01:22:05.361Z,9.747454
2023-02-08T01:23:05.319Z,9.747289
2023-02-08T01:24:05.321Z,9.747523
2023-02-08T01:25:05.315Z,9.747457
2023-02-08T01:26:05.296Z,9.747468
2023-02-08T01:27:05.312Z,9.747494
2023-02-08T01:28:05.352Z,9.747503
2023-02-08T01:29:05.267Z,9.747569
2023-02-08T01:30:05.261Z,9.747516
2023-02-08T01:31:05.359Z,9.747556
2023-02-08T01:32:05.272Z,9.747508
2023-02-08T01:33:05.242Z,9.747524
2023-02-08T01:34:05.236Z,9.747581
2023-02-08T01:35:05.218Z,9.747421
2023-02-08T01:36:06.219Z,9.747476
2023-02-08T01:37:05.234Z,9.747557
2023-02-08T01:38:05.198Z,9.747490
2023-02-08T01:39:05.198Z,9.747486
2023-02-08T01:40:05.196Z,9.747517
2023-02-08T01:41:05.180Z,9.747511
2023-02-08T01:42:05.205Z,9.747491
2023-02-08T01:43:05.170Z,9.747437
2023-02-08T01:44:05.159Z,9.747425
2023-02-08T01:45:05.169Z,9.747414
2023-02-08T01:46:05.200Z,9.747411
2023-02-08T01:47:05.154Z,9.747430
2023-02-08T01:48:05.153Z,9.747507
2023-02-08T01:49:05.129Z,9.747495
2023-02-08T01:50:05.113Z,9.747446
2023-02-08T01:51:05.102Z,9.747413
2023-02-08T01:52:05.133Z,9.747436
2023-02-08T01:53:05.096Z,9.747418
2023-02-08T01:54:05.167Z,9.747376
2023-02-08T01:55:05.081Z,9.747394
2023-02-08T01:56:05.067Z,9.747380
2023-02-08T01:57:05.088Z,9.747429
2023-02-08T01:58:05.044Z,9.747384
2023-02-08T01:59:06.053Z,9.747452
2023-02-08T02:00:05.040Z,9.747445
2023-02-08T02:01:05.061Z,9.747417
2023-02-08T02:02:05.060Z,9.747446
2023-02-08T02:03:05.017Z,9.747420
2023-02-08T02:04:05.046Z,9.747396
2023-02-08T02:05:05.016Z,9.747471
2023-02-08T02:06:04.999Z,9.747292
2023-02-08T02:07:05.022Z,9.747375
2023-02-08T02:08:04.986Z,9.747414
2023-02-08T02:09:04.972Z,9.747720
2023-02-08T02:10:04.971Z,9.747478
2023-02-08T02:11:04.964Z,9.747400
2023-02-08T02:12:04.984Z,9.747520
2023-02-08T02:13:04.978Z,9.747410
2023-02-08T02:14:04.963Z,9.747414
2023-02-08T02:15:04.928Z,9.747375
2023-02-08T02:16:04.952Z,9.747441
2023-02-08T02:17:05.251Z,9.747463
2023-02-08T02:18:04.922Z,9.747494
2023-02-08T02:19:04.896Z,9.747431
2023-02-08T02:20:04.910Z,9.747548
2023-02-08T02:21:04.884Z,9.747549
2023-02-08T02:22:04.897Z,9.747458
2023-02-08T02:23:04.867Z,9.747458
2023-02-08T02:24:04.867Z,9.747504
2023-02-08T02:25:04.858Z,9.747466
2023-02-08T02:26:04.842Z,9.747480
2023-02-08T02:27:04.881Z,9.747309
2023-02-08T02:28:04.864Z,9.747462
2023-02-08T02:29:04.839Z,9.747459
2023-02-08T02:30:04.827Z,9.747309
2023-02-08T02:31:04.828Z,9.747316
2023-02-08T02:32:04.842Z,9.747430
2023-02-08T02:33:04.800Z,9.747272
2023-02-08T02:34:04.808Z,9.747368
2023-02-08T02:35:04.792Z,9.747384
2023-02-08T02:36:04.776Z,9.747409
2023-02-08T02:37:04.772Z,9.747463
2023-02-08T02:38:04.785Z,9.747466
2023-02-08T02:39:04.762Z,9.747388
2023-02-08T02:40:04.747Z,9.747407
2023-02-08T02:41:04.745Z,9.747341
2023-02-08T02:42:04.733Z,9.747285
2023-02-08T02:43:04.757Z,9.747313
2023-02-08T02:44:04.745Z,9.747400
2023-02-08T02:45:04.935Z,9.747325
2023-02-08T02:46:04.752Z,9.747354
2023-02-08T02:47:04.699Z,9.747385
2023-02-08T02:48:04.722Z,9.747441
2023-02-08T02:49:04.731Z,9.747562
2023-02-08T02:50:04.711Z,9.747539
2023-02-08T02:51:04.673Z,9.747409
2023-02-08T02:52:04.669Z,9.747443
2023-02-08T02:53:04.695Z,9.747405
2023-02-08T02:54:04.665Z,9.747369
2023-02-08T02:55:04.713Z,9.747376
2023-02-08T02:56:04.645Z,9.747319
2023-02-08T02:57:04.637Z,9.747312
2023-02-08T02:58:04.667Z,9.747462
2023-02-08T02:59:04.624Z,9.747403
2023-02-08T03:00:04.608Z,9.747426
2023-02-08T03:01:04.672Z,9.747430
2023-02-08T03:02:04.611Z,9.747495
2023-02-08T03:03:04.619Z,9.747610
2023-02-08T03:04:04.689Z,9.747406
2023-02-08T03:05:04.595Z,9.747383
2023-02-08T03:06:04.573Z,9.747381
2023-02-08T03:07:04.583Z,9.747256
2023-02-08T03:08:05.690Z,9.747377
2023-02-08T03:09:04.550Z,9.747412
2023-02-08T03:10:04.541Z,9.747495
2023-02-08T03:11:04.529Z,9.747532
2023-02-08T03:12:04.527Z,9.747439
2023-02-08T03:13:04.549Z,9.747495
2023-02-08T03:14:04.554Z,9.747463
2023-02-08T03:15:04.503Z,9.747378
2023-02-08T03:16:04.501Z,9.747439
2023-02-08T03:17:04.655Z,9.747520
2023-02-08T03:18:04.522Z,9.747477
2023-02-08T03:19:04.476Z,9.747412
2023-02-08T03:20:04.470Z,9.747453
2023-02-08T03:21:04.466Z,9.747398
2023-02-08T03:22:04.458Z,9.747521
2023-02-08T03:23:04.473Z,9.747474
2023-02-08T03:24:04.447Z,9.747441
2023-02-08T03:25:04.504Z,9.747461
2023-02-08T03:26:04.424Z,9.747534
2023-02-08T03:27:04.419Z,9.747506
2023-02-08T03:28:04.518Z,9.747614
2023-02-08T03:29:04.416Z,9.747697
2023-02-08T03:30:04.402Z,9.747597
2023-02-08T03:31:04.491Z,9.747546
2023-02-08T03:32:04.381Z,9.747593
2023-02-08T03:33:04.396Z,9.747661
2023-02-08T03:34:04.362Z,9.747489
2023-02-08T03:35:04.421Z,9.747440
2023-02-08T03:36:04.427Z,9.747363
2023-02-08T03:37:04.355Z,9.747658
2023-02-08T03:38:04.371Z,9.747480
2023-02-08T03:39:04.332Z,9.747416
2023-02-08T03:40:04.326Z,9.747395
2023-02-08T03:41:04.318Z,9.747510
2023-02-08T03:42:04.307Z,9.747484
2023-02-08T03:43:04.345Z,9.747452
2023-02-08T03:44:04.294Z,9.747393
2023-02-08T03:45:04.296Z,9.747498
2023-02-08T03:46:04.307Z,9.747415
2023-02-08T03:47:04.322Z,9.747357
2023-02-08T03:48:04.322Z,9.747458
2023-02-08T03:49:04.261Z,9.747471
2023-02-08T03:50:04.263Z,9.747433
2023-02-08T03:51:04.248Z,9.747435
2023-02-08T03:52:04.249Z,9.747432
2023-02-08T03:53:04.239Z,9.747449
2023-02-08T03:54:04.251Z,9.747429
2023-02-08T03:55:04.222Z,9.747397
2023-02-08T03:56:04.211Z,9.747493
2023-02-08T03:57:04.212Z,9.747507
2023-02-08T03:58:04.189Z,9.747386
2023-02-08T03:59:04.242Z,9.747461
2023-02-08T04:00:04.177Z,9.747490
2023-02-08T04:01:04.260Z,9.747336
2023-02-08T04:02:04.173Z,9.747441
2023-02-08T04:03:04.155Z,9.747473
2023-02-08T04:04:04.176Z,9.747455
2023-02-08T04:05:04.152Z,9.747309
2023-02-08T04:06:04.167Z,9.747396
2023-02-08T04:07:04.137Z,9.747442
2023-02-08T04:08:04.128Z,9.747493
2023-02-08T04:09:04.177Z,9.747479
2023-02-08T04:10:04.105Z,9.747530
2023-02-08T04:11:04.103Z,9.747494
2023-02-08T04:12:04.101Z,9.747482
2023-02-08T04:13:04.084Z,9.747400
2023-02-08T04:14:04.107Z,9.747428
2023-02-08T04:15:04.071Z,9.747417
2023-02-08T04:16:04.103Z,9.747435
2023-02-08T04:17:04.055Z,9.747418
2023-02-08T04:18:04.062Z,9.747459
2023-02-08T04:19:04.082Z,9.747433
2023-02-08T04:20:04.035Z,9.747419
2023-02-08T04:21:04.030Z,9.747458
2023-02-08T04:22:04.016Z,9.747414
2023-02-08T04:23:04.026Z,9.747293
2023-02-08T04:24:04.027Z,9.747450
2023-02-08T04:25:03.992Z,9.747462
2023-02-08T04:26:04.006Z,9.747443
2023-02-08T04:27:05.908Z,9.747364
2023-02-08T04:28:05.040Z,9.747429
2023-02-08T04:29:03.989Z,9.747470
2023-02-08T04:30:03.962Z,9.747523
2023-02-08T04:31:04.951Z,9.747410
2023-02-08T04:32:03.942Z,9.747408
2023-02-08T04:33:03.964Z,9.747349
2023-02-08T04:34:03.965Z,9.747358
2023-02-08T04:35:03.938Z,9.747472
2023-02-08T04:36:03.936Z,9.747395
2023-02-08T04:37:03.915Z,9.747352
2023-02-08T04:38:03.899Z,9.747326
2023-02-08T04:39:03.929Z,9.747350
2023-02-08T04:40:04.120Z,9.747310
2023-02-08T04:41:03.883Z,9.747297
2023-02-08T04:42:03.877Z,9.747402
2023-02-08T04:43:04.876Z,9.747271
2023-02-08T04:44:03.899Z,9.747349
2023-02-08T04:45:03.850Z,9.747502
2023-02-08T04:46:03.880Z,9.747463
2023-02-08T04:47:03.846Z,9.747357
2023-02-08T04:48:03.833Z,9.747543
2023-02-08T04:49:03.895Z,9.747454
2023-02-08T04:50:03.827Z,9.747339
2023-02-08T04:51:03.817Z,9.747391
2023-02-08T04:52:03.811Z,9.747530
2023-02-08T04:53:03.808Z,9.747490
2023-02-08T04:54:03.837Z,9.747424
2023-02-08T04:55:03.787Z,9.747300
2023-02-08T04:56:03.794Z,9.747213
2023-02-08T04:57:03.769Z,9.747426
2023-02-08T04:58:03.793Z,9.747389
2023-02-08T04:59:03.789Z,9.747357
2023-02-08T05:00:04.746Z,9.747425
2023-02-08T05:01:03.737Z,9.747327
2023-02-08T05:02:03.789Z,9.747376
2023-02-08T05:03:03.901Z,9.747231
2023-02-08T05:04:03.755Z,9.747347
2023-02-08T05:34:37.724Z,9.747312
2023-02-08T05:35:37.665Z,9.747527
2023-02-08T05:36:37.691Z,9.747477
2023-02-08T05:37:37.665Z,9.747385
2023-02-08T05:38:37.677Z,9.747477
2023-02-08T05:39:37.668Z,9.747168
2023-02-08T05:40:37.633Z,9.746916
2023-02-08T05:41:37.653Z,9.747179
2023-02-08T05:42:37.637Z,9.747954
2023-02-08T05:43:37.610Z,9.747817
2023-02-08T05:44:37.641Z,9.747482
2023-02-08T05:45:37.599Z,9.747381
2023-02-08T05:46:38.447Z,9.747490
2023-02-08T05:47:38.580Z,9.747412
2023-02-08T05:48:37.599Z,9.747311
2023-02-08T05:49:37.669Z,9.747430
2023-02-08T05:50:37.633Z,9.747495
2023-02-08T05:51:37.555Z,9.747448
2023-02-08T05:52:37.541Z,9.747467
2023-02-08T05:53:37.537Z,9.747596
2023-02-08T05:54:37.566Z,9.747439
2023-02-08T05:55:37.546Z,9.747274
2023-02-08T05:56:37.561Z,9.747411
2023-02-08T05:57:37.523Z,9.747568
2023-02-08T05:58:37.503Z,9.747603
2023-02-08T05:59:37.532Z,9.747376
2023-02-08T06:00:37.494Z,9.747370
2023-02-08T06:01:37.482Z,9.747360
2023-02-08T06:02:37.593Z,9.747415
2023-02-08T06:03:37.468Z,9.747514
2023-02-08T06:04:39.097Z,9.747399
2023-02-08T06:05:38.456Z,9.747440
2023-02-08T06:06:37.459Z,9.747394
2023-02-08T06:07:37.439Z,9.747374
2023-02-08T06:08:37.432Z,9.747313
2023-02-08T06:09:37.428Z,9.747335
2023-02-08T06:10:37.444Z,9.747349
2023-02-08T06:11:37.405Z,9.747196
2023-02-08T06:12:37.407Z,9.747385
2023-02-08T06:13:37.388Z,9.747236
2023-02-08T06:14:37.411Z,9.747254
2023-02-08T06:15:37.387Z,9.747371
2023-02-08T06:16:37.424Z,9.747829
2023-02-08T06:17:37.363Z,9.747748
2023-02-08T06:18:37.387Z,9.747581
2023-02-08T06:19:37.342Z,9.747359
2023-02-08T06:20:37.369Z,9.747371
2023-02-08T06:21:37.327Z,9.747255
2023-02-08T06:22:37.319Z,9.747267
2023-02-08T06:23:37.313Z,9.747400
2023-02-08T06:24:37.374Z,9.747381
2023-02-08T06:25:37.301Z,9.747278
2023-02-08T06:26:37.300Z,9.747467
2023-02-08T06:27:37.294Z,9.747373
2023-02-08T06:28:37.277Z,9.747376
2023-02-08T06:29:37.266Z,9.747398
2023-02-08T06:30:37.284Z,9.747468
2023-02-08T06:31:37.314Z,9.747475
2023-02-08T06:32:37.322Z,9.747396
2023-02-08T06:33:37.261Z,9.747495
2023-02-08T06:34:37.232Z,9.747541
2023-02-08T06:35:37.268Z,9.747510
2023-02-08T06:36:37.219Z,9.747441
2023-02-08T06:37:37.218Z,9.747429
2023-02-08T06:38:37.204Z,9.747403
2023-02-08T06:39:37.197Z,9.747491
2023-02-08T06:40:37.225Z,9.747386
2023-02-08T06:41:37.189Z,9.747442
2023-02-08T06:42:37.175Z,9.747306
2023-02-08T06:43:37.166Z,9.747412
2023-02-08T06:44:37.166Z,9.747436
2023-02-08T06:45:37.188Z,9.747462
2023-02-08T06:46:37.182Z,9.747449
2023-02-08T06:47:37.144Z,9.747359
2023-02-08T06:48:37.265Z,9.747439
2023-02-08T06:49:37.124Z,9.747476
2023-02-08T06:50:37.145Z,9.747417
2023-02-08T06:51:37.111Z,9.747541
2023-02-08T06:52:37.108Z,9.747478
2023-02-08T06:53:37.097Z,9.747449
2023-02-08T06:54:37.098Z,9.747781
2023-02-08T06:55:37.120Z,9.747784
2023-02-08T06:56:37.086Z,9.747636
2023-02-08T06:57:37.078Z,9.747446
2023-02-08T06:58:37.060Z,9.747407
2023-02-08T06:59:37.076Z,9.747683
2023-02-08T07:00:37.070Z,9.747684
2023-02-08T07:01:37.042Z,9.747680
2023-02-08T07:02:37.114Z,9.747580
2023-02-08T07:03:37.029Z,9.747309
2023-02-08T07:04:37.042Z,9.747244
2023-02-08T07:05:37.056Z,9.746974
2023-02-08T07:06:37.013Z,9.747286
2023-02-08T07:07:37.028Z,9.747339
2023-02-08T07:08:37.001Z,9.747301
2023-02-08T07:09:36.993Z,9.747281
2023-02-08T07:10:37.031Z,9.747224
2023-02-08T07:11:37.010Z,9.747273
2023-02-08T07:12:36.966Z,9.747314
2023-02-08T07:13:36.957Z,9.747389
2023-02-08T07:14:36.958Z,9.747086
2023-02-08T07:15:36.970Z,9.747095
2023-02-08T07:16:37.091Z,9.747423
2023-02-08T07:17:36.962Z,9.747527
2023-02-08T07:18:36.930Z,9.747555
2023-02-08T07:19:36.933Z,9.747452
2023-02-08T07:20:36.935Z,9.747592
2023-02-08T07:21:36.905Z,9.747275
2023-02-08T07:22:36.893Z,9.747589
2023-02-08T07:23:36.883Z,9.747477
2023-02-08T07:24:36.888Z,9.747420
2023-02-08T07:25:36.898Z,9.747224
2023-02-08T07:26:36.878Z,9.747284
2023-02-08T07:27:36.877Z,9.747395
2023-02-08T07:28:36.853Z,9.747562
2023-02-08T07:29:36.866Z,9.747519
2023-02-08T07:30:36.920Z,9.747619
2023-02-08T07:31:36.888Z,9.747420
2023-02-08T07:32:36.829Z,9.747484
2023-02-08T07:33:36.812Z,9.747288
2023-02-08T07:34:36.818Z,9.747339
2023-02-08T07:35:36.832Z,9.747266
2023-02-08T07:36:36.801Z,9.747251
2023-02-08T07:37:36.803Z,9.747273
2023-02-08T07:38:36.780Z,9.747173
2023-02-08T07:39:36.877Z,9.747243
2023-02-08T07:40:36.792Z,9.747539
2023-02-08T07:41:36.760Z,9.747737
2023-02-08T07:42:36.753Z,9.747736
2023-02-08T07:43:36.749Z,9.747441
2023-02-08T07:44:36.740Z,9.747422
2023-02-08T07:45:37.761Z,9.747503
2023-02-08T07:46:36.768Z,9.747523
2023-02-08T07:47:36.748Z,9.747590
2023-02-08T07:48:39.151Z,9.747702
2023-02-08T07:49:36.702Z,9.747534
2023-02-08T07:50:36.726Z,9.747526
2023-02-08T07:51:36.688Z,9.747596
2023-02-08T07:52:36.686Z,9.747434
2023-02-08T07:53:36.688Z,9.747300
2023-02-08T07:54:36.703Z,9.747226
2023-02-08T07:55:36.686Z,9.747120
2023-02-08T07:56:36.658Z,9.747305
2023-02-08T07:57:36.668Z,9.747362
2023-02-08T07:58:36.662Z,9.747424
2023-02-08T07:59:36.650Z,9.747473
2023-02-08T08:00:36.666Z,9.747404
2023-02-08T08:01:36.663Z,9.747248
2023-02-08T08:02:36.623Z,9.747195
2023-02-08T08:03:36.652Z,9.747121
2023-02-08T08:04:36.599Z,9.747098
2023-02-08T08:05:36.621Z,9.747238
2023-02-08T08:06:36.596Z,9.747167
2023-02-08T08:07:36.586Z,9.747251
2023-02-08T08:08:36.579Z,9.747254
2023-02-08T08:09:36.571Z,9.747375
2023-02-08T08:10:36.592Z,9.747484
2023-02-08T08:11:36.556Z,9.746926
2023-02-08T08:12:36.556Z,9.747097
2023-02-08T08:13:36.551Z,9.747295
2023-02-08T08:14:36.545Z,9.747365
2023-02-08T08:15:36.564Z,9.747308
2023-02-08T08:16:36.578Z,9.747318
2023-02-08T08:17:36.528Z,9.747168
2023-02-08T08:18:36.509Z,9.747403
2023-02-08T08:19:36.510Z,9.747290
2023-02-08T08:20:36.519Z,9.747656
2023-02-08T08:21:36.492Z,9.747434
2023-02-08T08:22:36.485Z,9.747587
2023-02-08T08:23:36.464Z,9.748124
2023-02-08T08:24:36.466Z,9.748090
2023-02-08T08:25:36.503Z,9.747800
2023-02-08T08:26:36.454Z,9.747871
2023-02-08T08:27:36.446Z,9.747657
2023-02-08T08:28:36.461Z,9.747657
2023-02-08T08:29:36.440Z,9.747573
2023-02-08T08:30:36.453Z,9.747594
2023-02-08T08:31:36.550Z,9.747628
2023-02-08T08:32:36.397Z,9.747598
2023-02-08T08:33:37.483Z,9.747765
2023-02-08T08:34:36.388Z,9.747896
2023-02-08T08:35:36.384Z,9.747447
2023-02-08T08:36:36.401Z,9.747502
2023-02-08T08:37:36.371Z,9.747475
2023-02-08T08:38:36.367Z,9.747450
2023-02-08T08:39:36.358Z,9.747302
2023-02-08T08:40:36.345Z,9.747740
2023-02-08T08:41:36.364Z,9.747500
2023-02-08T08:42:36.332Z,9.747559
2023-02-08T08:43:36.322Z,9.747749
2023-02-08T08:44:36.361Z,9.747583
2023-02-08T08:45:36.327Z,9.747370
2023-02-08T08:46:36.366Z,9.747437
2023-02-08T08:47:37.296Z,9.747530
2023-02-08T08:48:36.289Z,9.747358
2023-02-08T08:49:36.285Z,9.747530
2023-02-08T08:50:36.273Z,9.747637
2023-02-08T08:51:36.296Z,9.747688
2023-02-08T08:52:36.273Z,9.747514
2023-02-08T08:53:36.256Z,9.747245
2023-02-08T08:54:36.244Z,9.747332
2023-02-08T08:55:36.264Z,9.747378
2023-02-08T08:56:36.257Z,9.747499
2023-02-08T08:57:36.223Z,9.747561
2023-02-08T08:58:37.240Z,9.747689
2023-02-08T08:59:36.209Z,9.747842
2023-02-08T09:00:36.204Z,9.747680
2023-02-08T09:01:36.243Z,9.747594
2023-02-08T09:02:36.186Z,9.747583
2023-02-08T09:03:36.212Z,9.747569
2023-02-08T09:04:36.169Z,9.747613
2023-02-08T09:05:36.167Z,9.747637
2023-02-08T09:06:36.177Z,9.747596
2023-02-08T09:07:36.144Z,9.747446
2023-02-08T09:08:36.164Z,9.747470
2023-02-08T09:09:36.143Z,9.747550
2023-02-08T09:10:36.159Z,9.747500
2023-02-08T09:11:36.180Z,9.747395
2023-02-08T09:12:36.176Z,9.747517
2023-02-08T09:13:36.105Z,9.747584
2023-02-08T09:14:36.094Z,9.747611
2023-02-08T09:15:36.091Z,9.747567
2023-02-08T09:16:36.101Z,9.747627
2023-02-08T09:17:36.068Z,9.747626
2023-02-08T09:18:36.070Z,9.747792
2023-02-08T09:19:36.052Z,9.747694
2023-02-08T09:20:36.043Z,9.747603
2023-02-08T09:21:36.571Z,9.747562
2023-02-08T09:22:36.035Z,9.747533
2023-02-08T09:23:36.029Z,9.747507
2023-02-08T09:24:36.028Z,9.747601
2023-02-08T09:25:36.014Z,9.747553
2023-02-08T09:26:36.046Z,9.747457
2023-02-08T09:27:35.997Z,9.747607
2023-02-08T09:28:35.989Z,9.747660
2023-02-08T09:29:35.980Z,9.747578
2023-02-08T09:30:35.991Z,9.747513
2023-02-08T09:31:36.074Z,9.747540
2023-02-08T09:32:35.958Z,9.747555
2023-02-08T09:33:35.953Z,9.747564
2023-02-08T09:34:35.946Z,9.747621
2023-02-08T09:35:35.962Z,9.747614
2023-02-08T09:36:35.960Z,9.747590
2023-02-08T09:37:35.927Z,9.747483
2023-02-08T09:38:35.921Z,9.747572
2023-02-08T09:39:35.916Z,9.747480
2023-02-08T09:40:35.915Z,9.747566
2023-02-08T09:41:35.932Z,9.747628
2023-02-08T09:42:35.906Z,9.747634
2023-02-08T09:43:35.890Z,9.747610
2023-02-08T09:44:35.874Z,9.747642
2023-02-08T09:45:35.871Z,9.747595
2023-02-08T09:46:35.913Z,9.747603
2023-02-08T09:47:36.346Z,9.747767
2023-02-08T09:48:36.854Z,9.747755
2023-02-08T09:49:35.901Z,9.747682
2023-02-08T09:50:35.847Z,9.747641
2023-02-08T09:51:35.853Z,9.747640
2023-02-08T09:52:35.820Z,9.747616
2023-02-08T09:53:35.814Z,9.747646
2023-02-08T09:54:35.809Z,9.747634
2023-02-08T09:55:35.799Z,9.747645
2023-02-08T09:56:35.820Z,9.747582
2023-02-08T09:57:35.795Z,9.747611
2023-02-08T09:58:35.779Z,9.747634
2023-02-08T09:59:35.788Z,9.747615
2023-02-08T10:00:35.822Z,9.747538
2023-02-08T10:01:35.790Z,9.747646
2023-02-08T10:02:35.753Z,9.747731
2023-02-08T10:03:35.861Z,9.747652
2023-02-08T10:04:35.737Z,9.747624
2023-02-08T10:05:35.732Z,9.747540
2023-02-08T10:06:35.760Z,9.747539
2023-02-08T10:07:35.732Z,9.747469
2023-02-08T10:08:35.812Z,9.747510
2023-02-08T10:09:35.706Z,9.747585
2023-02-08T10:10:35.699Z,9.747512
2023-02-08T10:11:35.712Z,9.747520
2023-02-08T10:12:35.710Z,9.747555
2023-02-08T10:13:41.401Z,9.747436
2023-02-08T10:14:37.664Z,9.747529
2023-02-08T10:15:35.658Z,9.747515
2023-02-08T10:16:35.748Z,9.747485
2023-02-08T10:17:35.643Z,9.747517
2023-02-08T10:18:35.634Z,9.747542
2023-02-08T10:19:35.624Z,9.747513
2023-02-08T10:20:35.626Z,9.747489
2023-02-08T10:21:35.641Z,9.747519
2023-02-08T10:22:35.598Z,9.747510
2023-02-08T10:23:35.598Z,9.747478
2023-02-08T10:24:35.584Z,9.747439
2023-02-08T10:25:35.577Z,9.747497
2023-02-08T10:26:35.714Z,9.747464
2023-02-08T10:27:35.595Z,9.747471
2023-02-08T10:28:35.620Z,9.747334
2023-02-08T10:29:36.574Z,9.747375
2023-02-08T10:30:35.556Z,9.747406
2023-02-08T10:31:35.590Z,9.747590
2023-02-08T10:32:35.568Z,9.747580
2023-02-08T10:33:35.519Z,9.747486
2023-02-08T10:34:35.503Z,9.747533
2023-02-08T10:35:35.621Z,9.747532
2023-02-08T10:36:35.491Z,9.747434
2023-02-08T10:37:35.516Z,9.747483
2023-02-08T10:38:45.986Z,9.747561
2023-02-08T10:39:37.472Z,9.747598
2023-02-08T10:40:35.474Z,9.747505
2023-02-08T10:41:35.462Z,9.747512
2023-02-08T10:42:35.477Z,9.747389
2023-02-08T10:43:35.465Z,9.747431
2023-02-08T10:44:35.445Z,9.747480
2023-02-08T10:45:35.492Z,9.747471
2023-02-08T10:46:35.413Z,9.747523
2023-02-08T10:47:35.426Z,9.747500
2023-02-08T10:48:35.393Z,9.747429
2023-02-08T10:49:35.403Z,9.747538
2023-02-08T10:50:35.394Z,9.747410
2023-02-08T10:51:35.416Z,9.747529
2023-02-08T10:52:35.425Z,9.747410
2023-02-08T10:53:35.352Z,9.747434
2023-02-08T10:54:35.360Z,9.747343
2023-02-08T10:55:36.401Z,9.747267
2023-02-08T10:56:36.336Z,9.747297
2023-02-08T10:57:35.358Z,9.747334
2023-02-08T10:58:35.344Z,9.747587
2023-02-08T10:59:35.311Z,9.747327
2023-02-08T11:00:35.370Z,9.747355
2023-02-08T11:01:35.314Z,9.747167
2023-02-08T11:02:35.328Z,9.747416
2023-02-08T11:03:35.292Z,9.747487
2023-02-08T11:04:35.315Z,9.747427
2023-02-08T11:06:07.946Z,9.747201
2023-02-08T11:06:35.264Z,9.747304
2023-02-08T11:07:36.644Z,9.747317
2023-02-08T11:08:36.366Z,9.747214
2023-02-08T11:09:35.263Z,9.747548
2023-02-08T11:10:35.233Z,9.747247
2023-02-08T11:11:35.947Z,9.747236
2023-02-08T11:12:35.269Z,9.747325
2023-02-08T11:13:36.659Z,9.747252
2023-02-08T11:14:46.346Z,9.747251
2023-02-08T11:15:37.211Z,9.747248
2023-02-08T11:16:35.257Z,9.747308
2023-02-08T11:17:35.249Z,9.747462
2023-02-08T11:18:35.167Z,9.747386
2023-02-08T11:19:35.547Z,9.747419
2023-02-08T11:20:36.169Z,9.747419
2023-02-08T11:21:35.145Z,9.747396
2023-02-08T11:22:35.136Z,9.747462
2023-02-08T11:23:35.194Z,9.747332
2023-02-08T11:24:35.126Z,9.747282
2023-02-08T11:25:35.996Z,9.747353
2023-02-08T11:26:36.126Z,9.747468
2023-02-08T11:27:35.094Z,9.747409
2023-02-08T11:28:35.122Z,9.747531
2023-02-08T11:29:35.087Z,9.747430
2023-02-08T11:30:35.122Z,9.747414
2023-02-08T11:31:35.105Z,9.747491
2023-02-08T11:32:35.065Z,9.747512
2023-02-08T11:33:35.087Z,9.747538
2023-02-08T11:34:35.045Z,9.747689
2023-02-08T11:35:35.050Z,9.747987
2023-02-08T11:36:35.097Z,9.747578
2023-02-08T11:37:35.026Z,9.747860
2023-02-08T11:38:35.076Z,9.747171
2023-02-08T11:39:35.012Z,9.747401
2023-02-08T11:40:35.012Z,9.747283
2023-02-08T11:41:36.957Z,9.747073
2023-02-08T11:42:35.034Z,9.747203
2023-02-08T11:43:35.021Z,9.747227
2023-02-08T11:44:34.980Z,9.747464
2023-02-08T11:45:34.970Z,9.747519
2023-02-08T11:46:34.990Z,9.747231
2023-02-08T11:47:34.960Z,9.746594
2023-02-08T11:48:34.976Z,9.746754
2023-02-08T11:49:34.942Z,9.747151
2023-02-08T11:50:34.930Z,9.747337
2023-02-08T11:51:34.932Z,9.747013
2023-02-08T11:52:34.912Z,9.747581
2023-02-08T11:53:34.966Z,9.747304
2023-02-08T11:54:34.900Z,9.747430
2023-02-08T11:55:34.916Z,9.747364
2023-02-08T11:56:34.896Z,9.747484
2023-02-08T11:57:34.892Z,9.747454
2023-02-08T11:58:34.897Z,9.747308
2023-02-08T11:59:34.865Z,9.747391
2023-02-08T12:00:34.869Z,9.747321
2023-02-08T12:01:34.961Z,9.747536
2023-02-08T12:02:34.861Z,9.747543
2023-02-08T12:03:34.936Z,9.747415
2023-02-08T12:04:34.833Z,9.747449
2023-02-08T12:05:34.829Z,9.747599
2023-02-08T12:06:34.825Z,9.747572
2023-02-08T12:07:34.816Z,9.747515
2023-02-08T12:08:34.832Z,9.747600
2023-02-08T12:09:35.971Z,9.747510
2023-02-08T12:10:34.788Z,9.747427
2023-02-08T12:11:34.797Z,9.747343
2023-02-08T12:12:34.775Z,9.747466
2023-02-08T12:13:34.766Z,9.747494